sensor_id;sensor_type;location;lat;lon;timestamp;temperature;humidity
33825;DHT22;20127;48.962;8.342;2023-11-18T00:00:49;7.20;99.90
33825;DHT22;20127;48.962;8.342;2023-11-18T00:03:52;7.20;99.90
33825;DHT22;20127;48.962;8.342;2023-11-18T00:06:55;7.20;99.90
33825;DHT22;20127;48.962;8.342;2023-11-18T00:09:59;7.20;99.90
33825;DHT22;20127;48.962;8.342;2023-11-18T00:13:01;7.20;99.90
33825;DHT22;20127;48.962;8.342;2023-11-18T00:16:05;7.20;99.90
33825;DHT22;20127;48.962;8.342;2023-11-18T00:19:08;7.20;99.90
33825;DHT22;20127;48.962;8.342;2023-11-18T00:22:09;7.20;99.90
33825;DHT22;20127;48.962;8.342;2023-11-18T00:25:12;7.10;99.90
33825;DHT22;20127;48.962;8.342;2023-11-18T00:28:14;7.20;99.90
33825;DHT22;20127;48.962;8.342;2023-11-18T00:31:16;7.20;99.90
33825;DHT22;20127;48.962;8.342;2023-11-18T00:34:19;7.20;99.90
33825;DHT22;20127;48.962;8.342;2023-11-18T00:37:21;7.20;99.90
33825;DHT22;20127;48.962;8.342;2023-11-18T00:40:23;7.20;99.90
33825;DHT22;20127;48.962;8.342;2023-11-18T00:43:24;7.20;99.90
33825;DHT22;20127;48.962;8.342;2023-11-18T00:46:26;7.20;99.90
33825;DHT22;20127;48.962;8.342;2023-11-18T00:49:30;7.20;99.90
33825;DHT22;20127;48.962;8.342;2023-11-18T00:52:31;7.20;99.90
33825;DHT22;20127;48.962;8.342;2023-11-18T00:55:33;7.20;99.90
33825;DHT22;20127;48.962;8.342;2023-11-18T00:58:35;7.10;99.90
33825;DHT22;20127;48.962;8.342;2023-11-18T01:01:40;7.10;99.90
33825;DHT22;20127;48.962;8.342;2023-11-18T01:04:43;7.00;99.90
33825;DHT22;20127;48.962;8.342;2023-11-18T01:07:46;7.10;99.90
33825;DHT22;20127;48.962;8.342;2023-11-18T01:10:48;7.10;99.90
33825;DHT22;20127;48.962;8.342;2023-11-18T01:13:49;7.10;99.90
33825;DHT22;20127;48.962;8.342;2023-11-18T01:16:51;7.10;99.90
33825;DHT22;20127;48.962;8.342;2023-11-18T01:19:54;7.10;99.90
33825;DHT22;20127;48.962;8.342;2023-11-18T01:22:56;7.00;99.90
33825;DHT22;20127;48.962;8.342;2023-11-18T01:25:58;7.00;99.90
33825;DHT22;20127;48.962;8.342;2023-11-18T01:29:00;7.00;99.90
33825;DHT22;20127;48.962;8.342;2023-11-18T01:32:02;7.00;99.90
33825;DHT22;20127;48.962;8.342;2023-11-18T01:35:10;6.90;99.90
33825;DHT22;20127;48.962;8.342;2023-11-18T01:38:12;6.80;99.90
33825;DHT22;20127;48.962;8.342;2023-11-18T01:41:14;6.80;99.90
33825;DHT22;20127;48.962;8.342;2023-11-18T01:44:16;6.70;99.90
33825;DHT22;20127;48.962;8.342;2023-11-18T01:47:20;6.70;99.90
33825;DHT22;20127;48.962;8.342;2023-11-18T01:50:23;6.70;99.90
33825;DHT22;20127;48.962;8.342;2023-11-18T01:53:25;6.60;99.90
33825;DHT22;20127;48.962;8.342;2023-11-18T01:56:27;6.60;99.90
33825;DHT22;20127;48.962;8.342;2023-11-18T01:59:29;6.50;99.90
33825;DHT22;20127;48.962;8.342;2023-11-18T02:02:32;6.50;99.90
33825;DHT22;20127;48.962;8.342;2023-11-18T02:05:36;6.40;99.90
33825;DHT22;20127;48.962;8.342;2023-11-18T02:08:39;6.40;99.90
33825;DHT22;20127;48.962;8.342;2023-11-18T02:11:46;6.50;99.90
33825;DHT22;20127;48.962;8.342;2023-11-18T02:14:50;6.50;99.90
33825;DHT22;20127;48.962;8.342;2023-11-18T02:17:55;6.60;99.90
33825;DHT22;20127;48.962;8.342;2023-11-18T02:21:00;6.70;99.90
33825;DHT22;20127;48.962;8.342;2023-11-18T02:24:02;6.70;99.90
33825;DHT22;20127;48.962;8.342;2023-11-18T02:27:06;6.80;99.90
33825;DHT22;20127;48.962;8.342;2023-11-18T02:30:13;6.80;99.90
33825;DHT22;20127;48.962;8.342;2023-11-18T02:33:19;6.90;99.90
33825;DHT22;20127;48.962;8.342;2023-11-18T02:36:28;6.90;99.90
33825;DHT22;20127;48.962;8.342;2023-11-18T02:39:39;6.90;99.90
33825;DHT22;20127;48.962;8.342;2023-11-18T02:42:45;7.00;99.90
33825;DHT22;20127;48.962;8.342;2023-11-18T02:45:49;7.00;99.90
33825;DHT22;20127;48.962;8.342;2023-11-18T02:48:52;7.00;99.90
33825;DHT22;20127;48.962;8.342;2023-11-18T02:51:54;7.00;99.90
33825;DHT22;20127;48.962;8.342;2023-11-18T02:54:56;7.00;99.90
33825;DHT22;20127;48.962;8.342;2023-11-18T02:57:59;7.00;99.90
33825;DHT22;20127;48.962;8.342;2023-11-18T03:01:01;7.00;99.90
33825;DHT22;20127;48.962;8.342;2023-11-18T03:04:05;7.00;99.90
33825;DHT22;20127;48.962;8.342;2023-11-18T03:07:07;7.00;99.90
33825;DHT22;20127;48.962;8.342;2023-11-18T03:10:09;7.00;99.90
33825;DHT22;20127;48.962;8.342;2023-11-18T03:13:14;7.00;99.90
33825;DHT22;20127;48.962;8.342;2023-11-18T03:16:15;7.10;99.90
33825;DHT22;20127;48.962;8.342;2023-11-18T03:19:17;7.00;99.90
33825;DHT22;20127;48.962;8.342;2023-11-18T03:22:19;7.00;99.90
33825;DHT22;20127;48.962;8.342;2023-11-18T03:25:22;7.00;99.90
33825;DHT22;20127;48.962;8.342;2023-11-18T03:28:25;6.90;99.90
33825;DHT22;20127;48.962;8.342;2023-11-18T03:31:27;6.80;99.90
33825;DHT22;20127;48.962;8.342;2023-11-18T03:34:29;6.70;99.90
33825;DHT22;20127;48.962;8.342;2023-11-18T03:37:31;6.60;99.90
33825;DHT22;20127;48.962;8.342;2023-11-18T03:40:32;6.50;99.90
33825;DHT22;20127;48.962;8.342;2023-11-18T03:43:37;6.50;99.90
33825;DHT22;20127;48.962;8.342;2023-11-18T03:46:39;6.40;99.90
33825;DHT22;20127;48.962;8.342;2023-11-18T03:49:41;6.40;99.90
33825;DHT22;20127;48.962;8.342;2023-11-18T03:52:43;6.30;99.90
33825;DHT22;20127;48.962;8.342;2023-11-18T03:55:45;6.30;99.90
33825;DHT22;20127;48.962;8.342;2023-11-18T03:58:48;6.20;99.90
33825;DHT22;20127;48.962;8.342;2023-11-18T04:01:49;6.20;99.90
33825;DHT22;20127;48.962;8.342;2023-11-18T04:04:51;6.10;99.90
33825;DHT22;20127;48.962;8.342;2023-11-18T04:07:53;6.10;99.90
33825;DHT22;20127;48.962;8.342;2023-11-18T04:10:55;6.00;99.90
33825;DHT22;20127;48.962;8.342;2023-11-18T04:13:58;6.00;99.90
33825;DHT22;20127;48.962;8.342;2023-11-18T04:17:00;6.00;99.90
33825;DHT22;20127;48.962;8.342;2023-11-18T04:20:02;5.90;99.90
33825;DHT22;20127;48.962;8.342;2023-11-18T04:23:05;5.90;99.90
33825;DHT22;20127;48.962;8.342;2023-11-18T04:26:08;5.80;99.90
33825;DHT22;20127;48.962;8.342;2023-11-18T04:29:11;5.80;99.90
33825;DHT22;20127;48.962;8.342;2023-11-18T04:32:13;5.70;99.90
33825;DHT22;20127;48.962;8.342;2023-11-18T04:35:14;5.60;99.90
33825;DHT22;20127;48.962;8.342;2023-11-18T04:38:17;5.50;99.90
33825;DHT22;20127;48.962;8.342;2023-11-18T04:41:19;5.50;99.90
33825;DHT22;20127;48.962;8.342;2023-11-18T04:44:22;5.50;99.90
33825;DHT22;20127;48.962;8.342;2023-11-18T04:47:24;5.50;99.90
33825;DHT22;20127;48.962;8.342;2023-11-18T04:50:27;5.50;99.90
33825;DHT22;20127;48.962;8.342;2023-11-18T04:53:29;5.60;99.90
33825;DHT22;20127;48.962;8.342;2023-11-18T04:56:32;5.60;99.90
33825;DHT22;20127;48.962;8.342;2023-11-18T04:59:36;5.70;99.90
33825;DHT22;20127;48.962;8.342;2023-11-18T05:02:39;5.70;99.90
33825;DHT22;20127;48.962;8.342;2023-11-18T05:05:40;5.70;99.90
33825;DHT22;20127;48.962;8.342;2023-11-18T05:08:42;5.70;99.90
33825;DHT22;20127;48.962;8.342;2023-11-18T05:11:44;5.80;99.90
33825;DHT22;20127;48.962;8.342;2023-11-18T05:14:47;5.70;99.90
33825;DHT22;20127;48.962;8.342;2023-11-18T05:17:50;5.70;99.90
33825;DHT22;20127;48.962;8.342;2023-11-18T05:20:52;5.80;99.90
33825;DHT22;20127;48.962;8.342;2023-11-18T05:23:54;5.80;99.90
33825;DHT22;20127;48.962;8.342;2023-11-18T05:26:57;5.80;99.90
33825;DHT22;20127;48.962;8.342;2023-11-18T05:30:04;5.80;99.90
33825;DHT22;20127;48.962;8.342;2023-11-18T05:33:06;5.90;99.90
33825;DHT22;20127;48.962;8.342;2023-11-18T05:36:08;5.90;99.90
33825;DHT22;20127;48.962;8.342;2023-11-18T05:39:12;5.90;99.90
33825;DHT22;20127;48.962;8.342;2023-11-18T05:42:15;5.90;99.90
33825;DHT22;20127;48.962;8.342;2023-11-18T05:45:18;5.90;99.90
33825;DHT22;20127;48.962;8.342;2023-11-18T05:48:28;5.90;99.90
33825;DHT22;20127;48.962;8.342;2023-11-18T05:51:29;5.90;99.90
33825;DHT22;20127;48.962;8.342;2023-11-18T05:54:32;5.90;99.90
33825;DHT22;20127;48.962;8.342;2023-11-18T05:57:33;6.00;99.90
33825;DHT22;20127;48.962;8.342;2023-11-18T06:00:37;6.00;99.90
33825;DHT22;20127;48.962;8.342;2023-11-18T06:03:41;5.90;99.90
33825;DHT22;20127;48.962;8.342;2023-11-18T06:06:43;5.90;99.90
33825;DHT22;20127;48.962;8.342;2023-11-18T06:09:44;6.00;99.90
33825;DHT22;20127;48.962;8.342;2023-11-18T06:12:47;6.00;99.90
33825;DHT22;20127;48.962;8.342;2023-11-18T06:15:50;5.90;99.90
33825;DHT22;20127;48.962;8.342;2023-11-18T06:18:53;6.00;99.90
33825;DHT22;20127;48.962;8.342;2023-11-18T06:21:55;5.90;99.90
33825;DHT22;20127;48.962;8.342;2023-11-18T06:24:56;5.80;99.90
33825;DHT22;20127;48.962;8.342;2023-11-18T06:27:58;5.80;99.90
33825;DHT22;20127;48.962;8.342;2023-11-18T06:31:01;5.70;99.90
33825;DHT22;20127;48.962;8.342;2023-11-18T06:34:03;5.70;99.90
33825;DHT22;20127;48.962;8.342;2023-11-18T06:37:05;5.70;99.90
33825;DHT22;20127;48.962;8.342;2023-11-18T06:40:08;5.60;99.90
33825;DHT22;20127;48.962;8.342;2023-11-18T06:43:16;5.70;99.90
33825;DHT22;20127;48.962;8.342;2023-11-18T06:46:21;5.60;99.90
33825;DHT22;20127;48.962;8.342;2023-11-18T06:49:23;5.60;99.90
33825;DHT22;20127;48.962;8.342;2023-11-18T06:52:26;5.60;99.90
33825;DHT22;20127;48.962;8.342;2023-11-18T06:55:28;5.60;99.90
33825;DHT22;20127;48.962;8.342;2023-11-18T06:58:30;5.70;99.90
33825;DHT22;20127;48.962;8.342;2023-11-18T07:01:33;5.70;99.90
33825;DHT22;20127;48.962;8.342;2023-11-18T07:04:36;5.70;99.90
33825;DHT22;20127;48.962;8.342;2023-11-18T07:07:38;5.80;99.90
33825;DHT22;20127;48.962;8.342;2023-11-18T07:10:40;5.80;99.90
33825;DHT22;20127;48.962;8.342;2023-11-18T07:13:42;5.90;99.90
33825;DHT22;20127;48.962;8.342;2023-11-18T07:16:45;6.00;99.90
33825;DHT22;20127;48.962;8.342;2023-11-18T07:19:47;6.00;99.90
33825;DHT22;20127;48.962;8.342;2023-11-18T07:22:49;6.00;99.90
33825;DHT22;20127;48.962;8.342;2023-11-18T07:25:51;6.00;99.90
33825;DHT22;20127;48.962;8.342;2023-11-18T07:28:54;6.10;99.90
33825;DHT22;20127;48.962;8.342;2023-11-18T07:31:57;6.10;99.90
33825;DHT22;20127;48.962;8.342;2023-11-18T07:34:59;6.20;99.90
33825;DHT22;20127;48.962;8.342;2023-11-18T07:38:01;6.30;99.90
33825;DHT22;20127;48.962;8.342;2023-11-18T07:41:03;6.30;99.90
33825;DHT22;20127;48.962;8.342;2023-11-18T07:44:08;6.30;99.90
33825;DHT22;20127;48.962;8.342;2023-11-18T07:47:14;6.30;99.90
33825;DHT22;20127;48.962;8.342;2023-11-18T07:50:17;6.30;99.90
33825;DHT22;20127;48.962;8.342;2023-11-18T07:53:20;6.30;99.90
33825;DHT22;20127;48.962;8.342;2023-11-18T07:56:21;6.30;99.90
33825;DHT22;20127;48.962;8.342;2023-11-18T07:59:23;6.30;99.90
33825;DHT22;20127;48.962;8.342;2023-11-18T08:02:26;6.40;99.90
33825;DHT22;20127;48.962;8.342;2023-11-18T08:05:28;6.40;99.90
33825;DHT22;20127;48.962;8.342;2023-11-18T08:08:32;6.50;99.90
33825;DHT22;20127;48.962;8.342;2023-11-18T08:11:33;6.60;99.90
33825;DHT22;20127;48.962;8.342;2023-11-18T08:14:35;6.70;99.90
33825;DHT22;20127;48.962;8.342;2023-11-18T08:17:38;6.70;99.90
33825;DHT22;20127;48.962;8.342;2023-11-18T08:20:40;6.80;99.90
33825;DHT22;20127;48.962;8.342;2023-11-18T08:23:43;6.90;99.90
33825;DHT22;20127;48.962;8.342;2023-11-18T08:26:46;7.00;99.90
33825;DHT22;20127;48.962;8.342;2023-11-18T08:29:47;7.00;99.90
33825;DHT22;20127;48.962;8.342;2023-11-18T08:32:51;7.10;99.90
33825;DHT22;20127;48.962;8.342;2023-11-18T08:35:52;7.10;99.90
33825;DHT22;20127;48.962;8.342;2023-11-18T08:38:54;7.20;99.90
33825;DHT22;20127;48.962;8.342;2023-11-18T08:41:57;7.30;99.90
33825;DHT22;20127;48.962;8.342;2023-11-18T08:44:59;7.40;99.90
33825;DHT22;20127;48.962;8.342;2023-11-18T08:48:03;7.50;99.90
33825;DHT22;20127;48.962;8.342;2023-11-18T08:51:07;7.50;99.90
33825;DHT22;20127;48.962;8.342;2023-11-18T08:54:10;7.50;99.90
33825;DHT22;20127;48.962;8.342;2023-11-18T08:57:22;7.60;99.90
33825;DHT22;20127;48.962;8.342;2023-11-18T09:00:26;7.60;99.90
33825;DHT22;20127;48.962;8.342;2023-11-18T09:03:52;7.70;99.90
33825;DHT22;20127;48.962;8.342;2023-11-18T09:06:54;7.70;99.90
33825;DHT22;20127;48.962;8.342;2023-11-18T09:10:00;7.80;99.90
33825;DHT22;20127;48.962;8.342;2023-11-18T09:13:02;7.90;99.90
33825;DHT22;20127;48.962;8.342;2023-11-18T09:16:05;7.90;99.90
33825;DHT22;20127;48.962;8.342;2023-11-18T09:19:10;8.00;99.90
33825;DHT22;20127;48.962;8.342;2023-11-18T09:22:12;8.10;99.90
33825;DHT22;20127;48.962;8.342;2023-11-18T09:25:15;8.20;99.90
33825;DHT22;20127;48.962;8.342;2023-11-18T09:28:17;8.30;99.90
33825;DHT22;20127;48.962;8.342;2023-11-18T09:31:20;8.40;99.90
33825;DHT22;20127;48.962;8.342;2023-11-18T09:34:23;8.50;99.90
33825;DHT22;20127;48.962;8.342;2023-11-18T09:37:33;8.70;99.90
33825;DHT22;20127;48.962;8.342;2023-11-18T09:40:35;8.80;99.90
33825;DHT22;20127;48.962;8.342;2023-11-18T09:43:44;8.90;99.90
33825;DHT22;20127;48.962;8.342;2023-11-18T09:46:48;9.00;99.90
33825;DHT22;20127;48.962;8.342;2023-11-18T09:50:00;9.10;99.90
33825;DHT22;20127;48.962;8.342;2023-11-18T09:53:08;9.20;99.90
33825;DHT22;20127;48.962;8.342;2023-11-18T09:56:15;9.30;99.90
33825;DHT22;20127;48.962;8.342;2023-11-18T09:59:31;9.50;99.90
33825;DHT22;20127;48.962;8.342;2023-11-18T10:02:35;9.60;99.90
33825;DHT22;20127;48.962;8.342;2023-11-18T10:05:42;9.70;99.90
33825;DHT22;20127;48.962;8.342;2023-11-18T10:08:43;9.80;99.90
33825;DHT22;20127;48.962;8.342;2023-11-18T10:11:47;9.90;99.90
33825;DHT22;20127;48.962;8.342;2023-11-18T10:14:50;10.00;99.90
33825;DHT22;20127;48.962;8.342;2023-11-18T10:17:52;10.00;99.90
33825;DHT22;20127;48.962;8.342;2023-11-18T10:21:01;10.10;99.90
33825;DHT22;20127;48.962;8.342;2023-11-18T10:24:05;10.10;99.90
33825;DHT22;20127;48.962;8.342;2023-11-18T10:27:11;10.10;99.90
33825;DHT22;20127;48.962;8.342;2023-11-18T10:30:13;10.10;99.90
33825;DHT22;20127;48.962;8.342;2023-11-18T10:33:19;10.10;99.90
33825;DHT22;20127;48.962;8.342;2023-11-18T10:36:23;10.20;99.90
33825;DHT22;20127;48.962;8.342;2023-11-18T10:39:28;10.10;99.90
33825;DHT22;20127;48.962;8.342;2023-11-18T10:42:31;10.10;99.90
33825;DHT22;20127;48.962;8.342;2023-11-18T10:45:33;10.00;99.90
33825;DHT22;20127;48.962;8.342;2023-11-18T10:48:36;10.00;99.90
33825;DHT22;20127;48.962;8.342;2023-11-18T10:51:40;9.90;99.90
33825;DHT22;20127;48.962;8.342;2023-11-18T10:54:50;9.90;99.90
33825;DHT22;20127;48.962;8.342;2023-11-18T10:57:54;9.80;99.90
33825;DHT22;20127;48.962;8.342;2023-11-18T11:00:56;9.70;99.90
33825;DHT22;20127;48.962;8.342;2023-11-18T11:04:01;9.70;99.90
33825;DHT22;20127;48.962;8.342;2023-11-18T11:07:06;9.60;99.90
33825;DHT22;20127;48.962;8.342;2023-11-18T11:10:08;9.60;99.90
33825;DHT22;20127;48.962;8.342;2023-11-18T11:13:11;9.60;99.90
33825;DHT22;20127;48.962;8.342;2023-11-18T11:16:18;9.60;99.90
33825;DHT22;20127;48.962;8.342;2023-11-18T11:19:24;9.50;99.90
33825;DHT22;20127;48.962;8.342;2023-11-18T11:22:33;9.50;99.90
33825;DHT22;20127;48.962;8.342;2023-11-18T11:25:55;9.50;99.90
33825;DHT22;20127;48.962;8.342;2023-11-18T11:29:04;9.50;99.90
33825;DHT22;20127;48.962;8.342;2023-11-18T11:32:16;9.40;99.90
33825;DHT22;20127;48.962;8.342;2023-11-18T11:35:23;9.30;99.90
33825;DHT22;20127;48.962;8.342;2023-11-18T11:38:32;9.10;99.90
33825;DHT22;20127;48.962;8.342;2023-11-18T11:41:36;9.10;99.90
33825;DHT22;20127;48.962;8.342;2023-11-18T11:44:39;9.10;99.90
33825;DHT22;20127;48.962;8.342;2023-11-18T11:47:43;9.10;99.90
33825;DHT22;20127;48.962;8.342;2023-11-18T11:50:59;9.10;99.90
33825;DHT22;20127;48.962;8.342;2023-11-18T11:54:11;9.20;99.90
33825;DHT22;20127;48.962;8.342;2023-11-18T11:57:16;9.20;99.90
33825;DHT22;20127;48.962;8.342;2023-11-18T12:00:18;9.20;99.90
33825;DHT22;20127;48.962;8.342;2023-11-18T12:03:21;9.20;99.90
33825;DHT22;20127;48.962;8.342;2023-11-18T12:06:24;9.20;99.90
33825;DHT22;20127;48.962;8.342;2023-11-18T12:09:31;9.20;99.90
33825;DHT22;20127;48.962;8.342;2023-11-18T12:12:39;9.30;99.90
33825;DHT22;20127;48.962;8.342;2023-11-18T12:15:49;9.30;99.90
33825;DHT22;20127;48.962;8.342;2023-11-18T12:22:26;9.50;99.90
33825;DHT22;20127;48.962;8.342;2023-11-18T12:25:32;9.50;99.90
33825;DHT22;20127;48.962;8.342;2023-11-18T12:28:37;9.50;99.90
33825;DHT22;20127;48.962;8.342;2023-11-18T12:31:45;9.50;99.90
33825;DHT22;20127;48.962;8.342;2023-11-18T12:34:51;9.40;99.90
33825;DHT22;20127;48.962;8.342;2023-11-18T12:38:24;9.40;99.90
33825;DHT22;20127;48.962;8.342;2023-11-18T12:41:35;9.40;99.90
33825;DHT22;20127;48.962;8.342;2023-11-18T12:44:49;9.40;99.90
33825;DHT22;20127;48.962;8.342;2023-11-18T12:47:55;9.50;99.90
33825;DHT22;20127;48.962;8.342;2023-11-18T12:50:59;9.50;99.90
33825;DHT22;20127;48.962;8.342;2023-11-18T12:54:01;9.50;99.90
33825;DHT22;20127;48.962;8.342;2023-11-18T12:57:08;9.50;99.90
33825;DHT22;20127;48.962;8.342;2023-11-18T13:00:12;9.50;99.90
33825;DHT22;20127;48.962;8.342;2023-11-18T13:03:18;9.50;99.90
33825;DHT22;20127;48.962;8.342;2023-11-18T13:06:20;9.40;99.90
33825;DHT22;20127;48.962;8.342;2023-11-18T13:09:28;9.40;99.90
33825;DHT22;20127;48.962;8.342;2023-11-18T13:12:34;9.40;99.90
33825;DHT22;20127;48.962;8.342;2023-11-18T13:15:36;9.40;99.90
33825;DHT22;20127;48.962;8.342;2023-11-18T13:18:42;9.40;99.90
33825;DHT22;20127;48.962;8.342;2023-11-18T13:21:44;9.30;99.90
33825;DHT22;20127;48.962;8.342;2023-11-18T13:24:47;9.40;99.90
33825;DHT22;20127;48.962;8.342;2023-11-18T13:27:51;9.40;99.90
33825;DHT22;20127;48.962;8.342;2023-11-18T13:30:55;9.40;99.90
33825;DHT22;20127;48.962;8.342;2023-11-18T13:33:56;9.40;99.90
33825;DHT22;20127;48.962;8.342;2023-11-18T13:36:59;9.50;99.90
33825;DHT22;20127;48.962;8.342;2023-11-18T13:40:02;9.60;99.90
33825;DHT22;20127;48.962;8.342;2023-11-18T13:43:07;9.60;99.90
33825;DHT22;20127;48.962;8.342;2023-11-18T13:46:12;9.70;99.90
33825;DHT22;20127;48.962;8.342;2023-11-18T13:49:14;9.80;99.90
33825;DHT22;20127;48.962;8.342;2023-11-18T13:52:17;9.80;99.90
33825;DHT22;20127;48.962;8.342;2023-11-18T13:55:19;9.80;99.90
33825;DHT22;20127;48.962;8.342;2023-11-18T13:58:27;9.90;99.90
33825;DHT22;20127;48.962;8.342;2023-11-18T14:01:30;9.90;99.90
33825;DHT22;20127;48.962;8.342;2023-11-18T14:04:33;9.90;99.90
33825;DHT22;20127;48.962;8.342;2023-11-18T14:07:38;9.90;99.90
33825;DHT22;20127;48.962;8.342;2023-11-18T14:10:40;10.00;99.90
33825;DHT22;20127;48.962;8.342;2023-11-18T14:13:43;10.10;99.90
33825;DHT22;20127;48.962;8.342;2023-11-18T14:16:44;10.10;99.90
33825;DHT22;20127;48.962;8.342;2023-11-18T14:19:46;10.10;99.90
33825;DHT22;20127;48.962;8.342;2023-11-18T14:22:48;10.10;99.90
33825;DHT22;20127;48.962;8.342;2023-11-18T14:25:50;10.00;99.90
33825;DHT22;20127;48.962;8.342;2023-11-18T14:28:53;10.00;99.90
33825;DHT22;20127;48.962;8.342;2023-11-18T14:31:56;10.00;99.90
33825;DHT22;20127;48.962;8.342;2023-11-18T14:34:57;10.00;99.90
33825;DHT22;20127;48.962;8.342;2023-11-18T14:37:59;10.00;99.90
33825;DHT22;20127;48.962;8.342;2023-11-18T14:41:01;9.90;99.90
33825;DHT22;20127;48.962;8.342;2023-11-18T14:44:06;9.90;99.90
33825;DHT22;20127;48.962;8.342;2023-11-18T14:47:09;9.90;99.90
33825;DHT22;20127;48.962;8.342;2023-11-18T14:50:13;9.90;99.90
33825;DHT22;20127;48.962;8.342;2023-11-18T14:53:18;9.80;99.90
33825;DHT22;20127;48.962;8.342;2023-11-18T14:56:20;9.80;99.90
33825;DHT22;20127;48.962;8.342;2023-11-18T14:59:23;9.80;99.90
33825;DHT22;20127;48.962;8.342;2023-11-18T15:02:25;9.80;99.90
33825;DHT22;20127;48.962;8.342;2023-11-18T15:05:27;9.70;99.90
33825;DHT22;20127;48.962;8.342;2023-11-18T15:08:29;9.70;99.90
33825;DHT22;20127;48.962;8.342;2023-11-18T15:11:31;9.70;99.90
33825;DHT22;20127;48.962;8.342;2023-11-18T15:14:35;9.70;99.90
33825;DHT22;20127;48.962;8.342;2023-11-18T15:17:37;9.70;99.90
33825;DHT22;20127;48.962;8.342;2023-11-18T15:20:40;9.60;99.90
33825;DHT22;20127;48.962;8.342;2023-11-18T15:23:43;9.60;99.90
33825;DHT22;20127;48.962;8.342;2023-11-18T15:26:45;9.60;99.90
33825;DHT22;20127;48.962;8.342;2023-11-18T15:29:49;9.50;99.90
33825;DHT22;20127;48.962;8.342;2023-11-18T15:32:50;9.50;99.90
33825;DHT22;20127;48.962;8.342;2023-11-18T15:35:53;9.50;99.90
33825;DHT22;20127;48.962;8.342;2023-11-18T15:38:55;9.40;99.90
33825;DHT22;20127;48.962;8.342;2023-11-18T15:42:04;9.40;99.90
33825;DHT22;20127;48.962;8.342;2023-11-18T15:45:11;9.40;99.90
33825;DHT22;20127;48.962;8.342;2023-11-18T15:48:12;9.40;99.90
33825;DHT22;20127;48.962;8.342;2023-11-18T15:51:15;9.30;99.90
33825;DHT22;20127;48.962;8.342;2023-11-18T15:54:16;9.30;99.90
33825;DHT22;20127;48.962;8.342;2023-11-18T15:57:19;9.30;99.90
33825;DHT22;20127;48.962;8.342;2023-11-18T16:00:24;9.30;99.90
33825;DHT22;20127;48.962;8.342;2023-11-18T16:03:26;9.30;99.90
33825;DHT22;20127;48.962;8.342;2023-11-18T16:06:29;9.20;99.90
33825;DHT22;20127;48.962;8.342;2023-11-18T16:09:32;9.20;99.90
33825;DHT22;20127;48.962;8.342;2023-11-18T16:12:35;9.20;99.90
33825;DHT22;20127;48.962;8.342;2023-11-18T16:15:39;9.20;99.90
33825;DHT22;20127;48.962;8.342;2023-11-18T16:18:41;9.20;99.90
33825;DHT22;20127;48.962;8.342;2023-11-18T16:21:43;9.10;99.90
33825;DHT22;20127;48.962;8.342;2023-11-18T16:24:47;9.10;99.90
33825;DHT22;20127;48.962;8.342;2023-11-18T16:27:50;9.00;99.90
33825;DHT22;20127;48.962;8.342;2023-11-18T16:30:54;9.00;99.90
33825;DHT22;20127;48.962;8.342;2023-11-18T16:33:56;9.00;99.90
33825;DHT22;20127;48.962;8.342;2023-11-18T16:36:58;9.00;99.90
33825;DHT22;20127;48.962;8.342;2023-11-18T16:40:00;8.90;99.90
33825;DHT22;20127;48.962;8.342;2023-11-18T16:43:02;8.90;99.90
33825;DHT22;20127;48.962;8.342;2023-11-18T16:46:08;8.90;99.90
33825;DHT22;20127;48.962;8.342;2023-11-18T16:49:12;8.90;99.90
33825;DHT22;20127;48.962;8.342;2023-11-18T16:52:16;8.90;99.90
33825;DHT22;20127;48.962;8.342;2023-11-18T16:55:18;8.90;99.90
33825;DHT22;20127;48.962;8.342;2023-11-18T16:58:21;8.90;99.90
33825;DHT22;20127;48.962;8.342;2023-11-18T17:01:24;8.90;99.90
33825;DHT22;20127;48.962;8.342;2023-11-18T17:04:26;8.90;99.90
33825;DHT22;20127;48.962;8.342;2023-11-18T17:07:28;8.90;99.90
33825;DHT22;20127;48.962;8.342;2023-11-18T17:10:29;8.80;99.90
33825;DHT22;20127;48.962;8.342;2023-11-18T17:13:31;8.80;99.90
33825;DHT22;20127;48.962;8.342;2023-11-18T17:16:34;8.80;99.90
33825;DHT22;20127;48.962;8.342;2023-11-18T17:19:36;8.80;99.90
33825;DHT22;20127;48.962;8.342;2023-11-18T17:22:40;8.90;99.90
33825;DHT22;20127;48.962;8.342;2023-11-18T17:25:42;9.10;99.90
33825;DHT22;20127;48.962;8.342;2023-11-18T17:28:44;9.20;99.90
33825;DHT22;20127;48.962;8.342;2023-11-18T17:31:47;9.30;99.90
33825;DHT22;20127;48.962;8.342;2023-11-18T17:34:49;9.50;99.90
33825;DHT22;20127;48.962;8.342;2023-11-18T17:37:51;9.50;99.90
33825;DHT22;20127;48.962;8.342;2023-11-18T17:40:53;9.40;99.90
33825;DHT22;20127;48.962;8.342;2023-11-18T17:43:57;9.30;99.90
33825;DHT22;20127;48.962;8.342;2023-11-18T17:47:00;9.30;99.90
33825;DHT22;20127;48.962;8.342;2023-11-18T17:50:03;9.20;99.90
33825;DHT22;20127;48.962;8.342;2023-11-18T17:53:08;9.10;99.90
33825;DHT22;20127;48.962;8.342;2023-11-18T17:56:13;9.10;99.90
33825;DHT22;20127;48.962;8.342;2023-11-18T17:59:14;9.00;99.90
33825;DHT22;20127;48.962;8.342;2023-11-18T18:02:18;9.00;99.90
33825;DHT22;20127;48.962;8.342;2023-11-18T18:05:20;9.00;99.90
33825;DHT22;20127;48.962;8.342;2023-11-18T18:08:21;9.00;99.90
33825;DHT22;20127;48.962;8.342;2023-11-18T18:11:23;9.00;99.90
33825;DHT22;20127;48.962;8.342;2023-11-18T18:14:25;8.90;99.90
33825;DHT22;20127;48.962;8.342;2023-11-18T18:17:30;8.90;99.90
33825;DHT22;20127;48.962;8.342;2023-11-18T18:20:32;8.90;99.90
33825;DHT22;20127;48.962;8.342;2023-11-18T18:23:34;8.90;99.90
33825;DHT22;20127;48.962;8.342;2023-11-18T18:26:36;8.80;99.90
33825;DHT22;20127;48.962;8.342;2023-11-18T18:29:38;8.80;99.90
33825;DHT22;20127;48.962;8.342;2023-11-18T18:32:41;8.80;99.90
33825;DHT22;20127;48.962;8.342;2023-11-18T18:35:42;8.70;99.90
33825;DHT22;20127;48.962;8.342;2023-11-18T18:38:46;8.70;99.90
33825;DHT22;20127;48.962;8.342;2023-11-18T18:41:50;8.70;99.90
33825;DHT22;20127;48.962;8.342;2023-11-18T18:44:51;8.70;99.90
33825;DHT22;20127;48.962;8.342;2023-11-18T18:47:56;8.70;99.90
33825;DHT22;20127;48.962;8.342;2023-11-18T18:50:58;8.70;99.90
33825;DHT22;20127;48.962;8.342;2023-11-18T18:54:00;8.70;99.90
33825;DHT22;20127;48.962;8.342;2023-11-18T18:57:02;8.80;99.90
33825;DHT22;20127;48.962;8.342;2023-11-18T19:00:07;8.80;99.90
33825;DHT22;20127;48.962;8.342;2023-11-18T19:03:13;8.80;99.90
33825;DHT22;20127;48.962;8.342;2023-11-18T19:06:15;8.90;99.90
33825;DHT22;20127;48.962;8.342;2023-11-18T19:09:16;8.90;99.90
33825;DHT22;20127;48.962;8.342;2023-11-18T19:12:19;8.90;99.90
33825;DHT22;20127;48.962;8.342;2023-11-18T19:15:20;8.90;99.90
33825;DHT22;20127;48.962;8.342;2023-11-18T19:18:26;8.90;99.90
33825;DHT22;20127;48.962;8.342;2023-11-18T19:21:27;9.00;99.90
33825;DHT22;20127;48.962;8.342;2023-11-18T19:24:29;9.00;99.90
33825;DHT22;20127;48.962;8.342;2023-11-18T19:27:31;9.00;99.90
33825;DHT22;20127;48.962;8.342;2023-11-18T19:30:33;9.10;99.90
33825;DHT22;20127;48.962;8.342;2023-11-18T19:33:36;9.10;99.90
33825;DHT22;20127;48.962;8.342;2023-11-18T19:36:38;9.10;99.90
33825;DHT22;20127;48.962;8.342;2023-11-18T19:39:40;9.10;99.90